sensor_id;sensor_type;location;lat;lon;timestamp;P1;durP1;ratioP1;P2;durP2;ratioP2
4244;SDS011;2136;48.502;9.194;2022-11-15T00:01:07;11.53;;;7.23;;
4244;SDS011;2136;48.502;9.194;2022-11-15T00:03:34;11.03;;;7.67;;
4244;SDS011;2136;48.502;9.194;2022-11-15T00:06:03;10.73;;;7.90;;
4244;SDS011;2136;48.502;9.194;2022-11-15T00:08:31;12.07;;;8.53;;
4244;SDS011;2136;48.502;9.194;2022-11-15T00:10:59;14.30;;;8.20;;
4244;SDS011;2136;48.502;9.194;2022-11-15T00:13:26;11.13;;;9.53;;
4244;SDS011;2136;48.502;9.194;2022-11-15T00:15:56;12.77;;;7.67;;
4244;SDS011;2136;48.502;9.194;2022-11-15T00:18:23;10.20;;;7.70;;
4244;SDS011;2136;48.502;9.194;2022-11-15T00:20:50;9.70;;;7.00;;
4244;SDS011;2136;48.502;9.194;2022-11-15T00:23:18;18.40;;;7.47;;
4244;SDS011;2136;48.502;9.194;2022-11-15T00:25:45;9.30;;;6.23;;
4244;SDS011;2136;48.502;9.194;2022-11-15T00:28:12;11.30;;;6.93;;
4244;SDS011;2136;48.502;9.194;2022-11-15T00:30:38;12.63;;;7.20;;
4244;SDS011;2136;48.502;9.194;2022-11-15T00:33:05;10.20;;;6.73;;
4244;SDS011;2136;48.502;9.194;2022-11-15T00:35:32;12.57;;;7.80;;
4244;SDS011;2136;48.502;9.194;2022-11-15T00:38:00;9.93;;;7.00;;
4244;SDS011;2136;48.502;9.194;2022-11-15T00:40:29;8.50;;;7.60;;
4244;SDS011;2136;48.502;9.194;2022-11-15T00:42:56;10.67;;;7.40;;
4244;SDS011;2136;48.502;9.194;2022-11-15T00:45:23;13.40;;;7.90;;
4244;SDS011;2136;48.502;9.194;2022-11-15T00:47:51;10.73;;;7.60;;
4244;SDS011;2136;48.502;9.194;2022-11-15T00:50:18;12.03;;;6.80;;
4244;SDS011;2136;48.502;9.194;2022-11-15T00:52:44;8.83;;;7.50;;
4244;SDS011;2136;48.502;9.194;2022-11-15T00:55:12;12.57;;;8.97;;
4244;SDS011;2136;48.502;9.194;2022-11-15T00:57:44;9.73;;;7.87;;
4244;SDS011;2136;48.502;9.194;2022-11-15T01:00:11;9.33;;;7.30;;
4244;SDS011;2136;48.502;9.194;2022-11-15T01:02:38;11.40;;;8.60;;
4244;SDS011;2136;48.502;9.194;2022-11-15T01:05:05;9.00;;;6.13;;
4244;SDS011;2136;48.502;9.194;2022-11-15T01:07:33;10.70;;;7.47;;
4244;SDS011;2136;48.502;9.194;2022-11-15T01:10:00;10.00;;;7.53;;
4244;SDS011;2136;48.502;9.194;2022-11-15T01:12:26;11.00;;;7.70;;
4244;SDS011;2136;48.502;9.194;2022-11-15T01:14:55;10.43;;;7.43;;
4244;SDS011;2136;48.502;9.194;2022-11-15T01:17:21;9.70;;;7.50;;
4244;SDS011;2136;48.502;9.194;2022-11-15T01:19:48;8.10;;;6.40;;
4244;SDS011;2136;48.502;9.194;2022-11-15T01:22:15;11.70;;;6.53;;
4244;SDS011;2136;48.502;9.194;2022-11-15T01:24:42;11.87;;;7.73;;
4244;SDS011;2136;48.502;9.194;2022-11-15T01:27:09;9.80;;;7.33;;
4244;SDS011;2136;48.502;9.194;2022-11-15T01:29:36;9.47;;;6.90;;
4244;SDS011;2136;48.502;9.194;2022-11-15T01:32:04;7.10;;;6.23;;
4244;SDS011;2136;48.502;9.194;2022-11-15T01:34:31;9.40;;;6.77;;
4244;SDS011;2136;48.502;9.194;2022-11-15T01:36:58;12.83;;;7.70;;
4244;SDS011;2136;48.502;9.194;2022-11-15T01:39:25;10.80;;;6.70;;
4244;SDS011;2136;48.502;9.194;2022-11-15T01:41:52;10.90;;;6.40;;
4244;SDS011;2136;48.502;9.194;2022-11-15T01:44:31;14.07;;;6.70;;
4244;SDS011;2136;48.502;9.194;2022-11-15T01:47:06;8.60;;;7.13;;
4244;SDS011;2136;48.502;9.194;2022-11-15T01:49:35;13.73;;;7.67;;
4244;SDS011;2136;48.502;9.194;2022-11-15T01:52:07;11.30;;;7.40;;
4244;SDS011;2136;48.502;9.194;2022-11-15T01:54:37;11.07;;;7.53;;
4244;SDS011;2136;48.502;9.194;2022-11-15T01:57:05;8.10;;;7.20;;
4244;SDS011;2136;48.502;9.194;2022-11-15T01:59:34;11.97;;;7.17;;
4244;SDS011;2136;48.502;9.194;2022-11-15T02:02:02;10.43;;;7.27;;
4244;SDS011;2136;48.502;9.194;2022-11-15T02:04:31;10.23;;;6.67;;
4244;SDS011;2136;48.502;9.194;2022-11-15T02:06:59;11.30;;;6.73;;
4244;SDS011;2136;48.502;9.194;2022-11-15T02:09:27;11.67;;;6.27;;
4244;SDS011;2136;48.502;9.194;2022-11-15T02:11:55;16.20;;;8.10;;
4244;SDS011;2136;48.502;9.194;2022-11-15T02:14:22;15.00;;;8.77;;
4244;SDS011;2136;48.502;9.194;2022-11-15T02:16:52;11.60;;;8.13;;
4244;SDS011;2136;48.502;9.194;2022-11-15T02:19:28;11.03;;;7.40;;
4244;SDS011;2136;48.502;9.194;2022-11-15T02:22:22;8.80;;;7.07;;
4244;SDS011;2136;48.502;9.194;2022-11-15T02:25:01;9.47;;;7.17;;
4244;SDS011;2136;48.502;9.194;2022-11-15T02:30:57;8.10;;;6.70;;
4244;SDS011;2136;48.502;9.194;2022-11-15T02:33:32;9.27;;;6.83;;
4244;SDS011;2136;48.502;9.194;2022-11-15T02:36:08;18.27;;;7.30;;
4244;SDS011;2136;48.502;9.194;2022-11-15T02:38:43;17.47;;;7.67;;
4244;SDS011;2136;48.502;9.194;2022-11-15T02:41:16;8.40;;;6.43;;
4244;SDS011;2136;48.502;9.194;2022-11-15T02:43:51;9.83;;;7.33;;
4244;SDS011;2136;48.502;9.194;2022-11-15T02:46:23;7.93;;;6.27;;
4244;SDS011;2136;48.502;9.194;2022-11-15T02:49:10;8.67;;;6.90;;
4244;SDS011;2136;48.502;9.194;2022-11-15T02:51:38;10.07;;;7.87;;
4244;SDS011;2136;48.502;9.194;2022-11-15T02:54:06;13.10;;;8.00;;
4244;SDS011;2136;48.502;9.194;2022-11-15T02:56:36;10.10;;;7.17;;
4244;SDS011;2136;48.502;9.194;2022-11-15T02:59:10;8.73;;;6.80;;
4244;SDS011;2136;48.502;9.194;2022-11-15T03:01:48;14.27;;;7.17;;
4244;SDS011;2136;48.502;9.194;2022-11-15T03:04:28;15.90;;;7.80;;
4244;SDS011;2136;48.502;9.194;2022-11-15T03:07:04;10.30;;;7.80;;
4244;SDS011;2136;48.502;9.194;2022-11-15T03:09:38;11.17;;;7.20;;
4244;SDS011;2136;48.502;9.194;2022-11-15T03:12:11;10.83;;;7.60;;
4244;SDS011;2136;48.502;9.194;2022-11-15T03:14:43;13.10;;;7.43;;
4244;SDS011;2136;48.502;9.194;2022-11-15T03:17:22;11.17;;;8.20;;
4244;SDS011;2136;48.502;9.194;2022-11-15T03:19:54;17.47;;;7.97;;
4244;SDS011;2136;48.502;9.194;2022-11-15T03:22:24;12.90;;;8.30;;
4244;SDS011;2136;48.502;9.194;2022-11-15T03:24:54;14.30;;;7.53;;
4244;SDS011;2136;48.502;9.194;2022-11-15T03:27:27;14.67;;;9.70;;
4244;SDS011;2136;48.502;9.194;2022-11-15T03:29:59;11.07;;;8.13;;
4244;SDS011;2136;48.502;9.194;2022-11-15T03:32:31;11.87;;;8.57;;
4244;SDS011;2136;48.502;9.194;2022-11-15T03:35:04;10.53;;;8.43;;
4244;SDS011;2136;48.502;9.194;2022-11-15T03:37:35;12.23;;;8.27;;
4244;SDS011;2136;48.502;9.194;2022-11-15T03:40:07;8.73;;;6.80;;
4244;SDS011;2136;48.502;9.194;2022-11-15T03:42:37;8.87;;;6.47;;
4244;SDS011;2136;48.502;9.194;2022-11-15T03:45:11;10.53;;;7.90;;
4244;SDS011;2136;48.502;9.194;2022-11-15T03:47:43;11.70;;;6.93;;
4244;SDS011;2136;48.502;9.194;2022-11-15T03:50:13;9.90;;;7.97;;
4244;SDS011;2136;48.502;9.194;2022-11-15T03:52:43;13.77;;;7.80;;
4244;SDS011;2136;48.502;9.194;2022-11-15T03:55:13;8.17;;;7.00;;
4244;SDS011;2136;48.502;9.194;2022-11-15T03:57:43;8.57;;;6.70;;
4244;SDS011;2136;48.502;9.194;2022-11-15T04:00:11;7.67;;;5.80;;
4244;SDS011;2136;48.502;9.194;2022-11-15T04:02:38;7.47;;;6.07;;
4244;SDS011;2136;48.502;9.194;2022-11-15T04:05:07;10.53;;;6.30;;
4244;SDS011;2136;48.502;9.194;2022-11-15T04:07:34;7.70;;;6.87;;
4244;SDS011;2136;48.502;9.194;2022-11-15T04:10:01;9.87;;;7.20;;
4244;SDS011;2136;48.502;9.194;2022-11-15T04:12:28;7.97;;;6.90;;
4244;SDS011;2136;48.502;9.194;2022-11-15T04:14:59;10.87;;;6.00;;
4244;SDS011;2136;48.502;9.194;2022-11-15T04:17:36;6.20;;;5.20;;
4244;SDS011;2136;48.502;9.194;2022-11-15T04:20:05;12.00;;;5.80;;
4244;SDS011;2136;48.502;9.194;2022-11-15T04:22:53;7.10;;;6.40;;
4244;SDS011;2136;48.502;9.194;2022-11-15T04:25:38;6.97;;;5.90;;
4244;SDS011;2136;48.502;9.194;2022-11-15T04:28:05;9.40;;;6.40;;
4244;SDS011;2136;48.502;9.194;2022-11-15T04:30:32;10.27;;;6.87;;
4244;SDS011;2136;48.502;9.194;2022-11-15T04:32:58;6.80;;;6.20;;
4244;SDS011;2136;48.502;9.194;2022-11-15T04:35:27;7.30;;;6.30;;
4244;SDS011;2136;48.502;9.194;2022-11-15T04:37:54;16.03;;;6.50;;
4244;SDS011;2136;48.502;9.194;2022-11-15T04:40:21;8.67;;;6.37;;
4244;SDS011;2136;48.502;9.194;2022-11-15T04:42:48;8.63;;;6.10;;
4244;SDS011;2136;48.502;9.194;2022-11-15T04:45:15;7.67;;;5.43;;
4244;SDS011;2136;48.502;9.194;2022-11-15T04:47:42;10.73;;;6.30;;
4244;SDS011;2136;48.502;9.194;2022-11-15T04:50:10;9.07;;;6.77;;
4244;SDS011;2136;48.502;9.194;2022-11-15T04:52:40;7.70;;;5.83;;
4244;SDS011;2136;48.502;9.194;2022-11-15T04:55:08;8.57;;;6.47;;
4244;SDS011;2136;48.502;9.194;2022-11-15T04:57:35;8.03;;;6.57;;
4244;SDS011;2136;48.502;9.194;2022-11-15T05:00:03;8.57;;;5.87;;
4244;SDS011;2136;48.502;9.194;2022-11-15T05:02:31;9.23;;;6.40;;
4244;SDS011;2136;48.502;9.194;2022-11-15T05:05:12;9.15;;;6.45;;
4244;SDS011;2136;48.502;9.194;2022-11-15T05:07:39;6.93;;;5.87;;
4244;SDS011;2136;48.502;9.194;2022-11-15T05:10:07;6.13;;;5.47;;
4244;SDS011;2136;48.502;9.194;2022-11-15T05:12:34;10.37;;;7.53;;
4244;SDS011;2136;48.502;9.194;2022-11-15T05:15:01;10.33;;;6.60;;
4244;SDS011;2136;48.502;9.194;2022-11-15T05:17:29;7.10;;;5.93;;
4244;SDS011;2136;48.502;9.194;2022-11-15T05:19:55;6.13;;;5.23;;
4244;SDS011;2136;48.502;9.194;2022-11-15T05:22:22;6.83;;;5.90;;
4244;SDS011;2136;48.502;9.194;2022-11-15T05:24:50;11.23;;;6.83;;
4244;SDS011;2136;48.502;9.194;2022-11-15T05:27:17;14.37;;;6.50;;
4244;SDS011;2136;48.502;9.194;2022-11-15T05:29:44;11.60;;;7.00;;
4244;SDS011;2136;48.502;9.194;2022-11-15T05:32:11;14.00;;;10.53;;
4244;SDS011;2136;48.502;9.194;2022-11-15T05:34:38;11.67;;;8.90;;
4244;SDS011;2136;48.502;9.194;2022-11-15T05:37:05;11.00;;;8.80;;
4244;SDS011;2136;48.502;9.194;2022-11-15T05:39:32;12.90;;;8.93;;
4244;SDS011;2136;48.502;9.194;2022-11-15T05:42:01;14.00;;;8.63;;
4244;SDS011;2136;48.502;9.194;2022-11-15T05:44:32;12.30;;;8.43;;
4244;SDS011;2136;48.502;9.194;2022-11-15T05:47:00;12.50;;;8.23;;
4244;SDS011;2136;48.502;9.194;2022-11-15T05:49:29;8.20;;;7.00;;
4244;SDS011;2136;48.502;9.194;2022-11-15T05:51:58;8.00;;;6.93;;
4244;SDS011;2136;48.502;9.194;2022-11-15T05:54:25;9.50;;;6.47;;
4244;SDS011;2136;48.502;9.194;2022-11-15T05:56:52;10.20;;;7.80;;
4244;SDS011;2136;48.502;9.194;2022-11-15T05:59:22;10.37;;;6.70;;
4244;SDS011;2136;48.502;9.194;2022-11-15T06:01:49;10.03;;;6.93;;
4244;SDS011;2136;48.502;9.194;2022-11-15T06:04:16;12.10;;;7.10;;
4244;SDS011;2136;48.502;9.194;2022-11-15T06:06:42;8.70;;;6.60;;
4244;SDS011;2136;48.502;9.194;2022-11-15T06:09:09;15.23;;;8.50;;
4244;SDS011;2136;48.502;9.194;2022-11-15T06:11:36;9.93;;;7.77;;
4244;SDS011;2136;48.502;9.194;2022-11-15T06:14:03;8.30;;;6.53;;
4244;SDS011;2136;48.502;9.194;2022-11-15T06:16:31;9.47;;;7.60;;
4244;SDS011;2136;48.502;9.194;2022-11-15T06:18:58;15.67;;;7.20;;
4244;SDS011;2136;48.502;9.194;2022-11-15T06:21:25;10.70;;;7.50;;
4244;SDS011;2136;48.502;9.194;2022-11-15T06:23:52;11.00;;;7.40;;
4244;SDS011;2136;48.502;9.194;2022-11-15T06:26:19;9.17;;;8.00;;
4244;SDS011;2136;48.502;9.194;2022-11-15T06:28:46;8.57;;;6.57;;
4244;SDS011;2136;48.502;9.194;2022-11-15T06:31:13;12.60;;;7.50;;
4244;SDS011;2136;48.502;9.194;2022-11-15T06:33:41;9.40;;;7.50;;
4244;SDS011;2136;48.502;9.194;2022-11-15T06:36:09;7.77;;;6.97;;
4244;SDS011;2136;48.502;9.194;2022-11-15T06:38:38;9.20;;;7.17;;
4244;SDS011;2136;48.502;9.194;2022-11-15T06:41:06;9.97;;;7.17;;
4244;SDS011;2136;48.502;9.194;2022-11-15T06:43:35;13.67;;;7.40;;
4244;SDS011;2136;48.502;9.194;2022-11-15T06:46:03;9.60;;;7.10;;
4244;SDS011;2136;48.502;9.194;2022-11-15T06:48:31;8.37;;;7.03;;
4244;SDS011;2136;48.502;9.194;2022-11-15T06:51:01;13.60;;;7.20;;
4244;SDS011;2136;48.502;9.194;2022-11-15T06:53:30;9.03;;;6.33;;
4244;SDS011;2136;48.502;9.194;2022-11-15T06:55:58;20.27;;;5.77;;
4244;SDS011;2136;48.502;9.194;2022-11-15T06:58:25;7.80;;;5.50;;
4244;SDS011;2136;48.502;9.194;2022-11-15T07:00:52;9.27;;;6.80;;
4244;SDS011;2136;48.502;9.194;2022-11-15T07:03:19;8.57;;;6.97;;
4244;SDS011;2136;48.502;9.194;2022-11-15T07:05:50;17.00;;;10.10;;
4244;SDS011;2136;48.502;9.194;2022-11-15T07:08:19;21.00;;;15.60;;
4244;SDS011;2136;48.502;9.194;2022-11-15T07:10:46;15.00;;;10.93;;
4244;SDS011;2136;48.502;9.194;2022-11-15T07:13:13;13.10;;;9.83;;
4244;SDS011;2136;48.502;9.194;2022-11-15T07:15:40;11.70;;;9.10;;
4244;SDS011;2136;48.502;9.194;2022-11-15T07:18:07;15.53;;;9.13;;
4244;SDS011;2136;48.502;9.194;2022-11-15T07:20:34;12.80;;;9.77;;
4244;SDS011;2136;48.502;9.194;2022-11-15T07:23:01;11.80;;;7.53;;
4244;SDS011;2136;48.502;9.194;2022-11-15T07:25:29;9.40;;;6.60;;
4244;SDS011;2136;48.502;9.194;2022-11-15T07:27:57;15.83;;;8.07;;
4244;SDS011;2136;48.502;9.194;2022-11-15T07:30:25;8.50;;;6.17;;
4244;SDS011;2136;48.502;9.194;2022-11-15T07:32:53;10.53;;;7.57;;
4244;SDS011;2136;48.502;9.194;2022-11-15T07:35:20;11.87;;;8.50;;
4244;SDS011;2136;48.502;9.194;2022-11-15T07:37:52;12.53;;;9.30;;
4244;SDS011;2136;48.502;9.194;2022-11-15T07:40:20;14.43;;;9.60;;
4244;SDS011;2136;48.502;9.194;2022-11-15T07:42:49;10.13;;;8.87;;
4244;SDS011;2136;48.502;9.194;2022-11-15T07:45:22;14.27;;;9.87;;
4244;SDS011;2136;48.502;9.194;2022-11-15T07:47:50;16.10;;;6.80;;
4244;SDS011;2136;48.502;9.194;2022-11-15T07:50:17;10.87;;;6.20;;
4244;SDS011;2136;48.502;9.194;2022-11-15T07:52:45;13.13;;;6.37;;
4244;SDS011;2136;48.502;9.194;2022-11-15T07:55:12;6.23;;;5.47;;
4244;SDS011;2136;48.502;9.194;2022-11-15T07:57:39;9.10;;;5.40;;
4244;SDS011;2136;48.502;9.194;2022-11-15T08:00:08;15.73;;;5.50;;
4244;SDS011;2136;48.502;9.194;2022-11-15T08:02:35;12.77;;;6.32;;
4244;SDS011;2136;48.502;9.194;2022-11-15T08:05:02;8.47;;;5.97;;
4244;SDS011;2136;48.502;9.194;2022-11-15T08:07:30;9.70;;;8.00;;
4244;SDS011;2136;48.502;9.194;2022-11-15T08:09:57;13.70;;;7.73;;
4244;SDS011;2136;48.502;9.194;2022-11-15T08:12:26;13.00;;;8.87;;
4244;SDS011;2136;48.502;9.194;2022-11-15T08:14:53;9.37;;;7.00;;
4244;SDS011;2136;48.502;9.194;2022-11-15T08:17:21;9.10;;;7.60;;
4244;SDS011;2136;48.502;9.194;2022-11-15T08:19:48;7.80;;;6.70;;
4244;SDS011;2136;48.502;9.194;2022-11-15T08:22:15;10.40;;;7.10;;
4244;SDS011;2136;48.502;9.194;2022-11-15T08:24:42;9.80;;;7.97;;
4244;SDS011;2136;48.502;9.194;2022-11-15T08:27:10;13.77;;;8.00;;
4244;SDS011;2136;48.502;9.194;2022-11-15T08:29:41;9.50;;;7.00;;
4244;SDS011;2136;48.502;9.194;2022-11-15T08:32:08;8.83;;;6.77;;
4244;SDS011;2136;48.502;9.194;2022-11-15T08:34:37;9.07;;;7.30;;
4244;SDS011;2136;48.502;9.194;2022-11-15T08:37:04;9.73;;;7.30;;
4244;SDS011;2136;48.502;9.194;2022-11-15T08:39:31;20.13;;;8.23;;
4244;SDS011;2136;48.502;9.194;2022-11-15T08:41:58;17.00;;;7.63;;
4244;SDS011;2136;48.502;9.194;2022-11-15T08:44:25;15.20;;;8.30;;
4244;SDS011;2136;48.502;9.194;2022-11-15T08:46:52;8.93;;;7.57;;
4244;SDS011;2136;48.502;9.194;2022-11-15T08:49:19;8.10;;;7.20;;
4244;SDS011;2136;48.502;9.194;2022-11-15T08:51:47;11.67;;;7.07;;
4244;SDS011;2136;48.502;9.194;2022-11-15T08:54:14;13.60;;;7.53;;
4244;SDS011;2136;48.502;9.194;2022-11-15T08:56:40;11.87;;;7.40;;
4244;SDS011;2136;48.502;9.194;2022-11-15T08:59:07;11.10;;;8.30;;
4244;SDS011;2136;48.502;9.194;2022-11-15T09:01:34;14.30;;;8.60;;
4244;SDS011;2136;48.502;9.194;2022-11-15T09:04:01;8.87;;;7.20;;
4244;SDS011;2136;48.502;9.194;2022-11-15T09:06:29;12.57;;;7.70;;
4244;SDS011;2136;48.502;9.194;2022-11-15T09:08:57;12.63;;;7.27;;
4244;SDS011;2136;48.502;9.194;2022-11-15T09:11:26;11.43;;;7.50;;
4244;SDS011;2136;48.502;9.194;2022-11-15T09:13:53;11.13;;;6.50;;
4244;SDS011;2136;48.502;9.194;2022-11-15T09:16:19;9.13;;;6.83;;
4244;SDS011;2136;48.502;9.194;2022-11-15T09:18:46;8.50;;;7.07;;
4244;SDS011;2136;48.502;9.194;2022-11-15T09:21:13;10.50;;;6.70;;
4244;SDS011;2136;48.502;9.194;2022-11-15T09:23:40;10.80;;;6.20;;
4244;SDS011;2136;48.502;9.194;2022-11-15T09:26:08;11.67;;;5.60;;
4244;SDS011;2136;48.502;9.194;2022-11-15T09:28:35;11.73;;;5.97;;
4244;SDS011;2136;48.502;9.194;2022-11-15T09:31:04;6.50;;;5.87;;
4244;SDS011;2136;48.502;9.194;2022-11-15T09:33:32;6.30;;;5.70;;
4244;SDS011;2136;48.502;9.194;2022-11-15T09:35:59;9.87;;;5.53;;
4244;SDS011;2136;48.502;9.194;2022-11-15T09:38:27;7.10;;;6.07;;
4244;SDS011;2136;48.502;9.194;2022-11-15T09:40:57;12.13;;;6.80;;
4244;SDS011;2136;48.502;9.194;2022-11-15T09:43:44;9.38;;;7.13;;
4244;SDS011;2136;48.502;9.194;2022-11-15T09:46:17;8.93;;;6.20;;
4244;SDS011;2136;48.502;9.194;2022-11-15T09:48:49;10.47;;;6.87;;
4244;SDS011;2136;48.502;9.194;2022-11-15T09:51:23;8.23;;;6.03;;
4244;SDS011;2136;48.502;9.194;2022-11-15T09:53:56;8.50;;;5.80;;
4244;SDS011;2136;48.502;9.194;2022-11-15T09:56:29;6.53;;;5.83;;
4244;SDS011;2136;48.502;9.194;2022-11-15T09:59:00;6.70;;;5.20;;
4244;SDS011;2136;48.502;9.194;2022-11-15T10:01:41;9.50;;;7.20;;
4244;SDS011;2136;48.502;9.194;2022-11-15T10:04:13;8.67;;;6.43;;
4244;SDS011;2136;48.502;9.194;2022-11-15T10:06:42;9.77;;;6.83;;
4244;SDS011;2136;48.502;9.194;2022-11-15T10:09:21;12.93;;;6.57;;
4244;SDS011;2136;48.502;9.194;2022-11-15T10:11:54;13.20;;;8.00;;
4244;SDS011;2136;48.502;9.194;2022-11-15T10:14:21;9.63;;;6.83;;
4244;SDS011;2136;48.502;9.194;2022-11-15T10:17:09;7.17;;;5.90;;
4244;SDS011;2136;48.502;9.194;2022-11-15T10:19:58;6.20;;;4.50;;
4244;SDS011;2136;48.502;9.194;2022-11-15T10:22:35;10.17;;;5.80;;
4244;SDS011;2136;48.502;9.194;2022-11-15T10:25:14;9.53;;;5.10;;
4244;SDS011;2136;48.502;9.194;2022-11-15T10:27:44;9.87;;;5.40;;
4244;SDS011;2136;48.502;9.194;2022-11-15T10:30:17;5.60;;;4.90;;
4244;SDS011;2136;48.502;9.194;2022-11-15T10:32:47;7.80;;;5.87;;
4244;SDS011;2136;48.502;9.194;2022-11-15T10:35:16;7.10;;;5.63;;
4244;SDS011;2136;48.502;9.194;2022-11-15T10:37:45;10.40;;;5.10;;
4244;SDS011;2136;48.502;9.194;2022-11-15T10:40:15;5.33;;;4.40;;
4244;SDS011;2136;48.502;9.194;2022-11-15T10:42:43;6.43;;;5.27;;
4244;SDS011;2136;48.502;9.194;2022-11-15T10:45:22;6.47;;;4.23;;
4244;SDS011;2136;48.502;9.194;2022-11-15T10:47:52;6.13;;;4.83;;
4244;SDS011;2136;48.502;9.194;2022-11-15T10:50:26;4.20;;;3.80;;
4244;SDS011;2136;48.502;9.194;2022-11-15T10:52:54;4.83;;;4.43;;
4244;SDS011;2136;48.502;9.194;2022-11-15T10:55:22;7.80;;;4.43;;
4244;SDS011;2136;48.502;9.194;2022-11-15T10:57:52;7.27;;;5.73;;
4244;SDS011;2136;48.502;9.194;2022-11-15T11:00:27;5.30;;;4.80;;
4244;SDS011;2136;48.502;9.194;2022-11-15T11:02:59;7.77;;;5.50;;
4244;SDS011;2136;48.502;9.194;2022-11-15T11:05:27;9.00;;;5.20;;
4244;SDS011;2136;48.502;9.194;2022-11-15T11:07:57;5.70;;;4.80;;
4244;SDS011;2136;48.502;9.194;2022-11-15T11:10:26;7.93;;;6.10;;
4244;SDS011;2136;48.502;9.194;2022-11-15T11:12:54;5.93;;;5.13;;
4244;SDS011;2136;48.502;9.194;2022-11-15T11:15:20;8.97;;;6.27;;
4244;SDS011;2136;48.502;9.194;2022-11-15T11:17:57;11.20;;;5.60;;
4244;SDS011;2136;48.502;9.194;2022-11-15T11:20:36;8.50;;;6.20;;
4244;SDS011;2136;48.502;9.194;2022-11-15T11:23:13;7.60;;;5.30;;
4244;SDS011;2136;48.502;9.194;2022-11-15T11:25:50;6.63;;;5.87;;
4244;SDS011;2136;48.502;9.194;2022-11-15T11:28:29;5.57;;;5.07;;
4244;SDS011;2136;48.502;9.194;2022-11-15T11:31:08;4.80;;;4.30;;
4244;SDS011;2136;48.502;9.194;2022-11-15T11:33:48;5.87;;;4.73;;
4244;SDS011;2136;48.502;9.194;2022-11-15T11:36:24;4.30;;;3.90;;
4244;SDS011;2136;48.502;9.194;2022-11-15T11:39:00;10.40;;;4.40;;
4244;SDS011;2136;48.502;9.194;2022-11-15T11:41:44;5.83;;;4.70;;
4244;SDS011;2136;48.502;9.194;2022-11-15T11:44:23;4.50;;;4.07;;
4244;SDS011;2136;48.502;9.194;2022-11-15T11:46:58;9.27;;;3.70;;
4244;SDS011;2136;48.502;9.194;2022-11-15T11:49:29;6.07;;;4.10;;
4244;SDS011;2136;48.502;9.194;2022-11-15T11:52:02;5.13;;;4.63;;
4244;SDS011;2136;48.502;9.194;2022-11-15T11:54:37;5.87;;;4.03;;
4244;SDS011;2136;48.502;9.194;2022-11-15T11:57:11;5.30;;;3.70;;
4244;SDS011;2136;48.502;9.194;2022-11-15T11:59:43;5.60;;;3.80;;
4244;SDS011;2136;48.502;9.194;2022-11-15T12:02:16;4.80;;;4.30;;
4244;SDS011;2136;48.502;9.194;2022-11-15T12:04:49;4.23;;;3.83;;
4244;SDS011;2136;48.502;9.194;2022-11-15T12:07:20;8.10;;;4.20;;
4244;SDS011;2136;48.502;9.194;2022-11-15T12:09:51;5.67;;;4.00;;
4244;SDS011;2136;48.502;9.194;2022-11-15T12:12:23;6.97;;;5.10;;
4244;SDS011;2136;48.502;9.194;2022-11-15T12:14:57;7.50;;;5.47;;
4244;SDS011;2136;48.502;9.194;2022-11-15T12:17:28;8.27;;;5.27;;
4244;SDS011;2136;48.502;9.194;2022-11-15T12:19:58;6.73;;;5.00;;
4244;SDS011;2136;48.502;9.194;2022-11-15T12:22:32;5.37;;;3.90;;
4244;SDS011;2136;48.502;9.194;2022-11-15T12:25:05;11.30;;;4.60;;
4244;SDS011;2136;48.502;9.194;2022-11-15T12:27:40;5.27;;;4.60;;
4244;SDS011;2136;48.502;9.194;2022-11-15T12:30:12;5.00;;;4.40;;
4244;SDS011;2136;48.502;9.194;2022-11-15T12:32:48;7.80;;;4.17;;
4244;SDS011;2136;48.502;9.194;2022-11-15T12:35:23;4.30;;;3.67;;
4244;SDS011;2136;48.502;9.194;2022-11-15T12:37:52;9.13;;;5.40;;
4244;SDS011;2136;48.502;9.194;2022-11-15T12:40:31;5.57;;;4.27;;
4244;SDS011;2136;48.502;9.194;2022-11-15T12:46:02;4.47;;;3.63;;
4244;SDS011;2136;48.502;9.194;2022-11-15T12:54:54;6.87;;;4.13;;
4244;SDS011;2136;48.502;9.194;2022-11-15T12:57:29;7.80;;;4.83;;
4244;SDS011;2136;48.502;9.194;2022-11-15T13:00:35;8.70;;;6.03;;
4244;SDS011;2136;48.502;9.194;2022-11-15T13:03:16;7.53;;;5.03;;
4244;SDS011;2136;48.502;9.194;2022-11-15T13:05:57;11.43;;;5.70;;
4244;SDS011;2136;48.502;9.194;2022-11-15T13:17:25;6.67;;;5.40;;
4244;SDS011;2136;48.502;9.194;2022-11-15T13:20:15;12.60;;;5.60;;
4244;SDS011;2136;48.502;9.194;2022-11-15T13:22:53;15.97;;;6.17;;
4244;SDS011;2136;48.502;9.194;2022-11-15T13:28:34;9.00;;;5.80;;
4244;SDS011;2136;48.502;9.194;2022-11-15T13:31:14;10.07;;;6.27;;
4244;SDS011;2136;48.502;9.194;2022-11-15T13:33:53;14.33;;;6.07;;
4244;SDS011;2136;48.502;9.194;2022-11-15T13:36:24;11.57;;;7.03;;
4244;SDS011;2136;48.502;9.194;2022-11-15T13:38:54;7.13;;;6.00;;
4244;SDS011;2136;48.502;9.194;2022-11-15T13:41:24;12.17;;;6.17;;
4244;SDS011;2136;48.502;9.194;2022-11-15T13:43:53;7.77;;;5.63;;
4244;SDS011;2136;48.502;9.194;2022-11-15T13:46:22;9.00;;;5.10;;
4244;SDS011;2136;48.502;9.194;2022-11-15T13:48:51;10.93;;;5.60;;
4244;SDS011;2136;48.502;9.194;2022-11-15T13:51:21;12.40;;;6.87;;
4244;SDS011;2136;48.502;9.194;2022-11-15T13:53:52;8.83;;;5.40;;
4244;SDS011;2136;48.502;9.194;2022-11-15T13:56:22;9.80;;;7.77;;
4244;SDS011;2136;48.502;9.194;2022-11-15T13:58:51;8.37;;;6.10;;
4244;SDS011;2136;48.502;9.194;2022-11-15T14:01:20;13.00;;;6.80;;
4244;SDS011;2136;48.502;9.194;2022-11-15T14:03:52;11.40;;;9.13;;
4244;SDS011;2136;48.502;9.194;2022-11-15T14:06:22;14.70;;;9.13;;
4244;SDS011;2136;48.502;9.194;2022-11-15T14:09:04;18.00;;;8.13;;
4244;SDS011;2136;48.502;9.194;2022-11-15T14:11:59;25.20;;;8.90;;
4244;SDS011;2136;48.502;9.194;2022-11-15T14:14:28;12.80;;;8.50;;
4244;SDS011;2136;48.502;9.194;2022-11-15T14:16:56;20.80;;;8.23;;
4244;SDS011;2136;48.502;9.194;2022-11-15T14:19:34;30.17;;;10.53;;
4244;SDS011;2136;48.502;9.194;2022-11-15T14:22:09;15.13;;;9.03;;
4244;SDS011;2136;48.502;9.194;2022-11-15T14:24:38;20.93;;;8.80;;
4244;SDS011;2136;48.502;9.194;2022-11-15T14:27:15;12.95;;;8.10;;
4244;SDS011;2136;48.502;9.194;2022-11-15T14:29:45;14.03;;;7.90;;
4244;SDS011;2136;48.502;9.194;2022-11-15T14:32:14;12.20;;;6.97;;
4244;SDS011;2136;48.502;9.194;2022-11-15T14:34:43;11.83;;;7.10;;
4244;SDS011;2136;48.502;9.194;2022-11-15T14:37:16;16.17;;;8.30;;
4244;SDS011;2136;48.502;9.194;2022-11-15T14:39:46;16.10;;;8.70;;
4244;SDS011;2136;48.502;9.194;2022-11-15T14:42:13;11.80;;;7.30;;
4244;SDS011;2136;48.502;9.194;2022-11-15T14:44:40;13.57;;;9.40;;
4244;SDS011;2136;48.502;9.194;2022-11-15T14:47:08;12.80;;;8.03;;
4244;SDS011;2136;48.502;9.194;2022-11-15T14:49:35;13.77;;;8.67;;
4244;SDS011;2136;48.502;9.194;2022-11-15T14:52:02;12.80;;;8.40;;
4244;SDS011;2136;48.502;9.194;2022-11-15T14:54:31;19.70;;;11.60;;
4244;SDS011;2136;48.502;9.194;2022-11-15T14:56:57;17.67;;;10.00;;
4244;SDS011;2136;48.502;9.194;2022-11-15T14:59:24;15.30;;;9.10;;
4244;SDS011;2136;48.502;9.194;2022-11-15T15:01:51;15.33;;;9.87;;
4244;SDS011;2136;48.502;9.194;2022-11-15T15:04:19;12.70;;;8.93;;
4244;SDS011;2136;48.502;9.194;2022-11-15T15:06:46;14.53;;;8.37;;
4244;SDS011;2136;48.502;9.194;2022-11-15T15:09:13;13.37;;;8.00;;
4244;SDS011;2136;48.502;9.194;2022-11-15T15:11:39;13.60;;;7.70;;
4244;SDS011;2136;48.502;9.194;2022-11-15T15:14:07;17.67;;;8.70;;
4244;SDS011;2136;48.502;9.194;2022-11-15T15:16:34;20.63;;;13.00;;
4244;SDS011;2136;48.502;9.194;2022-11-15T15:19:01;36.60;;;19.50;;
4244;SDS011;2136;48.502;9.194;2022-11-15T15:21:29;21.23;;;12.90;;
4244;SDS011;2136;48.502;9.194;2022-11-15T15:23:56;16.47;;;10.60;;
4244;SDS011;2136;48.502;9.194;2022-11-15T15:26:23;14.57;;;9.60;;
4244;SDS011;2136;48.502;9.194;2022-11-15T15:28:50;17.60;;;10.80;;
4244;SDS011;2136;48.502;9.194;2022-11-15T15:31:17;26.80;;;16.42;;
4244;SDS011;2136;48.502;9.194;2022-11-15T15:33:44;28.77;;;18.17;;
4244;SDS011;2136;48.502;9.194;2022-11-15T15:36:12;22.90;;;12.60;;
4244;SDS011;2136;48.502;9.194;2022-11-15T15:38:42;20.20;;;13.13;;
4244;SDS011;2136;48.502;9.194;2022-11-15T15:41:09;23.93;;;13.57;;
4244;SDS011;2136;48.502;9.194;2022-11-15T15:43:37;20.27;;;12.27;;
4244;SDS011;2136;48.502;9.194;2022-11-15T15:46:04;19.40;;;12.23;;
4244;SDS011;2136;48.502;9.194;2022-11-15T15:48:33;18.80;;;11.20;;
4244;SDS011;2136;48.502;9.194;2022-11-15T15:51:02;15.67;;;10.20;;